Anchorage/Merrill Field, Alaska
Current Conditions -  °F | °C
As of 10:53 PM on Saturday 20 Dec 2014 (Local Time) from PAMR Reporting Station
Broken Clouds Broken Clouds  
Wind Chill: 19°   Ceiling: 20000
Heat Index: 19°   Visibility: 10mi
Dew Point: 15°   Wind: 0mph
Humidity: 85%   Direction: NA
Pressure: 28.94"   Gusts: NA
Location:  61.21°N, 149.85°W
Report Text: PAMR 210753Z 00000KT 10SM SCT110 BKN200 M07/M09 A2894 RMK AO2 SLP801 T10721094
Loading
Personal Weather Stations






























Interactive Weather Map New forecast layout! Learn more

10-Day Weather Forecast

Advertisements
Track Severe Weather on mobile